sensor_id;sensor_type;location;lat;lon;timestamp;P1;durP1;ratioP1;P2;durP2;ratioP2
8544;SDS011;4310;51.054;6.994;2022-07-06T00:00:39;3.67;;;2.00;;
8544;SDS011;4310;51.054;6.994;2022-07-06T00:01:42;3.27;;;2.30;;
8544;SDS011;4310;51.054;6.994;2022-07-06T00:02:46;3.25;;;2.12;;
8544;SDS011;4310;51.054;6.994;2022-07-06T00:03:49;2.60;;;1.95;;
8544;SDS011;4310;51.054;6.994;2022-07-06T00:04:53;2.70;;;2.10;;
8544;SDS011;4310;51.054;6.994;2022-07-06T00:05:57;2.90;;;2.50;;
8544;SDS011;4310;51.054;6.994;2022-07-06T00:07:01;5.05;;;2.30;;
8544;SDS011;4310;51.054;6.994;2022-07-06T00:08:05;4.42;;;2.25;;
8544;SDS011;4310;51.054;6.994;2022-07-06T00:09:08;6.67;;;2.52;;
8544;SDS011;4310;51.054;6.994;2022-07-06T00:10:12;3.45;;;2.58;;
8544;SDS011;4310;51.054;6.994;2022-07-06T00:11:16;3.30;;;2.47;;
8544;SDS011;4310;51.054;6.994;2022-07-06T00:12:20;4.15;;;2.40;;
8544;SDS011;4310;51.054;6.994;2022-07-06T00:13:23;2.70;;;2.50;;
8544;SDS011;4310;51.054;6.994;2022-07-06T00:15:39;3.67;;;2.95;;
8544;SDS011;4310;51.054;6.994;2022-07-06T00:16:42;3.95;;;2.72;;
8544;SDS011;4310;51.054;6.994;2022-07-06T00:17:46;4.15;;;2.62;;
8544;SDS011;4310;51.054;6.994;2022-07-06T00:18:50;4.90;;;2.87;;
8544;SDS011;4310;51.054;6.994;2022-07-06T00:19:54;3.70;;;2.83;;
8544;SDS011;4310;51.054;6.994;2022-07-06T00:20:57;4.55;;;2.95;;
8544;SDS011;4310;51.054;6.994;2022-07-06T00:22:01;3.00;;;2.80;;
8544;SDS011;4310;51.054;6.994;2022-07-06T00:23:05;3.90;;;2.70;;
8544;SDS011;4310;51.054;6.994;2022-07-06T00:24:09;4.12;;;3.00;;
8544;SDS011;4310;51.054;6.994;2022-07-06T00:25:13;3.92;;;2.83;;
8544;SDS011;4310;51.054;6.994;2022-07-06T00:26:16;3.52;;;2.80;;
8544;SDS011;4310;51.054;6.994;2022-07-06T00:28:32;4.58;;;3.05;;
8544;SDS011;4310;51.054;6.994;2022-07-06T00:29:35;2.95;;;2.60;;
8544;SDS011;4310;51.054;6.994;2022-07-06T00:30:39;2.85;;;2.50;;
8544;SDS011;4310;51.054;6.994;2022-07-06T00:31:43;3.35;;;2.85;;
8544;SDS011;4310;51.054;6.994;2022-07-06T00:32:47;3.65;;;2.87;;
8544;SDS011;4310;51.054;6.994;2022-07-06T00:33:51;2.98;;;2.67;;
8544;SDS011;4310;51.054;6.994;2022-07-06T00:34:55;3.10;;;2.70;;
8544;SDS011;4310;51.054;6.994;2022-07-06T00:35:58;3.92;;;2.60;;
8544;SDS011;4310;51.054;6.994;2022-07-06T00:37:02;4.12;;;2.65;;
8544;SDS011;4310;51.054;6.994;2022-07-06T00:38:06;3.25;;;2.90;;
8544;SDS011;4310;51.054;6.994;2022-07-06T00:39:10;4.30;;;2.60;;
8544;SDS011;4310;51.054;6.994;2022-07-06T00:40:14;3.72;;;2.70;;
8544;SDS011;4310;51.054;6.994;2022-07-06T00:41:17;3.15;;;2.62;;
8544;SDS011;4310;51.054;6.994;2022-07-06T00:42:21;4.20;;;3.12;;
8544;SDS011;4310;51.054;6.994;2022-07-06T00:43:25;3.08;;;2.72;;
8544;SDS011;4310;51.054;6.994;2022-07-06T00:44:28;3.30;;;2.50;;
8544;SDS011;4310;51.054;6.994;2022-07-06T00:46:45;5.78;;;2.77;;
8544;SDS011;4310;51.054;6.994;2022-07-06T00:47:49;4.37;;;2.80;;
8544;SDS011;4310;51.054;6.994;2022-07-06T00:48:53;3.00;;;2.70;;
8544;SDS011;4310;51.054;6.994;2022-07-06T00:49:57;6.20;;;2.92;;
8544;SDS011;4310;51.054;6.994;2022-07-06T00:51:23;4.87;;;2.75;;
8544;SDS011;4310;51.054;6.994;2022-07-06T00:52:27;3.75;;;2.58;;
8544;SDS011;4310;51.054;6.994;2022-07-06T00:53:31;3.98;;;2.70;;
8544;SDS011;4310;51.054;6.994;2022-07-06T00:54:35;2.73;;;2.50;;
8544;SDS011;4310;51.054;6.994;2022-07-06T00:55:39;2.90;;;2.70;;
8544;SDS011;4310;51.054;6.994;2022-07-06T00:56:43;3.22;;;2.72;;
8544;SDS011;4310;51.054;6.994;2022-07-06T00:58:58;4.58;;;2.80;;
8544;SDS011;4310;51.054;6.994;2022-07-06T01:00:03;3.60;;;3.10;;
8544;SDS011;4310;51.054;6.994;2022-07-06T01:01:07;3.67;;;3.05;;
8544;SDS011;4310;51.054;6.994;2022-07-06T01:02:11;4.40;;;2.98;;
8544;SDS011;4310;51.054;6.994;2022-07-06T01:03:15;4.03;;;3.20;;
8544;SDS011;4310;51.054;6.994;2022-07-06T01:04:19;4.53;;;2.90;;
8544;SDS011;4310;51.054;6.994;2022-07-06T01:05:22;4.45;;;3.30;;
8544;SDS011;4310;51.054;6.994;2022-07-06T01:07:38;3.15;;;2.92;;
8544;SDS011;4310;51.054;6.994;2022-07-06T01:08:42;4.20;;;3.10;;
8544;SDS011;4310;51.054;6.994;2022-07-06T01:09:47;3.57;;;3.27;;
8544;SDS011;4310;51.054;6.994;2022-07-06T01:10:50;3.52;;;3.22;;
8544;SDS011;4310;51.054;6.994;2022-07-06T01:11:54;3.90;;;3.50;;
8544;SDS011;4310;51.054;6.994;2022-07-06T01:12:58;4.62;;;3.55;;
8544;SDS011;4310;51.054;6.994;2022-07-06T01:14:02;4.03;;;3.70;;
8544;SDS011;4310;51.054;6.994;2022-07-06T01:15:07;4.67;;;3.72;;
8544;SDS011;4310;51.054;6.994;2022-07-06T01:16:11;4.47;;;3.55;;
8544;SDS011;4310;51.054;6.994;2022-07-06T01:17:15;3.50;;;3.20;;
8544;SDS011;4310;51.054;6.994;2022-07-06T01:18:19;4.22;;;3.70;;
8544;SDS011;4310;51.054;6.994;2022-07-06T01:19:23;3.50;;;3.20;;
8544;SDS011;4310;51.054;6.994;2022-07-06T01:20:28;5.37;;;3.65;;
8544;SDS011;4310;51.054;6.994;2022-07-06T01:21:32;4.40;;;3.40;;
8544;SDS011;4310;51.054;6.994;2022-07-06T01:22:36;3.77;;;3.40;;
8544;SDS011;4310;51.054;6.994;2022-07-06T01:23:40;4.55;;;3.50;;
8544;SDS011;4310;51.054;6.994;2022-07-06T01:24:44;4.20;;;3.40;;
8544;SDS011;4310;51.054;6.994;2022-07-06T01:25:48;4.00;;;3.55;;
8544;SDS011;4310;51.054;6.994;2022-07-06T01:26:52;3.62;;;3.42;;
8544;SDS011;4310;51.054;6.994;2022-07-06T01:27:55;3.90;;;3.50;;
8544;SDS011;4310;51.054;6.994;2022-07-06T01:29:00;4.65;;;3.47;;
8544;SDS011;4310;51.054;6.994;2022-07-06T01:30:04;4.50;;;3.40;;
8544;SDS011;4310;51.054;6.994;2022-07-06T01:31:14;5.35;;;3.50;;
8544;SDS011;4310;51.054;6.994;2022-07-06T01:32:19;3.83;;;3.17;;
8544;SDS011;4310;51.054;6.994;2022-07-06T01:33:23;3.90;;;3.60;;
8544;SDS011;4310;51.054;6.994;2022-07-06T01:34:30;4.08;;;3.22;;
8544;SDS011;4310;51.054;6.994;2022-07-06T01:35:33;3.60;;;3.30;;
8544;SDS011;4310;51.054;6.994;2022-07-06T01:36:39;3.65;;;3.35;;
8544;SDS011;4310;51.054;6.994;2022-07-06T01:37:43;4.83;;;3.40;;
8544;SDS011;4310;51.054;6.994;2022-07-06T01:38:47;4.00;;;3.40;;
8544;SDS011;4310;51.054;6.994;2022-07-06T01:39:51;4.05;;;3.67;;
8544;SDS011;4310;51.054;6.994;2022-07-06T01:40:54;3.67;;;3.40;;
8544;SDS011;4310;51.054;6.994;2022-07-06T01:41:58;4.45;;;4.03;;
8544;SDS011;4310;51.054;6.994;2022-07-06T01:43:02;5.08;;;4.53;;
8544;SDS011;4310;51.054;6.994;2022-07-06T01:44:06;5.00;;;4.60;;
8544;SDS011;4310;51.054;6.994;2022-07-06T01:45:10;5.10;;;4.60;;
8544;SDS011;4310;51.054;6.994;2022-07-06T01:46:14;5.50;;;5.00;;
8544;SDS011;4310;51.054;6.994;2022-07-06T01:47:18;5.72;;;5.33;;
8544;SDS011;4310;51.054;6.994;2022-07-06T01:49:33;6.05;;;5.53;;
8544;SDS011;4310;51.054;6.994;2022-07-06T01:50:37;6.00;;;5.50;;
8544;SDS011;4310;51.054;6.994;2022-07-06T01:51:41;6.00;;;5.50;;
8544;SDS011;4310;51.054;6.994;2022-07-06T01:52:44;6.17;;;5.67;;
8544;SDS011;4310;51.054;6.994;2022-07-06T01:53:48;6.30;;;5.80;;
8544;SDS011;4310;51.054;6.994;2022-07-06T01:54:52;7.00;;;6.50;;
8544;SDS011;4310;51.054;6.994;2022-07-06T01:55:59;7.47;;;6.87;;
8544;SDS011;4310;51.054;6.994;2022-07-06T01:57:03;7.78;;;7.17;;
8544;SDS011;4310;51.054;6.994;2022-07-06T01:58:07;9.13;;;8.45;;
8544;SDS011;4310;51.054;6.994;2022-07-06T01:59:11;8.10;;;7.50;;
8544;SDS011;4310;51.054;6.994;2022-07-06T02:01:26;7.45;;;6.92;;
8544;SDS011;4310;51.054;6.994;2022-07-06T02:02:30;7.40;;;6.83;;
8544;SDS011;4310;51.054;6.994;2022-07-06T02:03:34;7.65;;;7.10;;
8544;SDS011;4310;51.054;6.994;2022-07-06T02:04:38;7.72;;;7.17;;
8544;SDS011;4310;51.054;6.994;2022-07-06T02:05:42;8.48;;;7.90;;
8544;SDS011;4310;51.054;6.994;2022-07-06T02:06:48;8.60;;;8.00;;
8544;SDS011;4310;51.054;6.994;2022-07-06T02:09:04;7.97;;;7.55;;
8544;SDS011;4310;51.054;6.994;2022-07-06T02:10:08;8.73;;;8.23;;
8544;SDS011;4310;51.054;6.994;2022-07-06T02:12:24;7.90;;;7.30;;
8544;SDS011;4310;51.054;6.994;2022-07-06T02:13:27;7.60;;;7.15;;
8544;SDS011;4310;51.054;6.994;2022-07-06T02:14:31;8.28;;;7.67;;
8544;SDS011;4310;51.054;6.994;2022-07-06T02:15:35;8.30;;;7.80;;
8544;SDS011;4310;51.054;6.994;2022-07-06T02:16:39;9.20;;;8.70;;
8544;SDS011;4310;51.054;6.994;2022-07-06T02:18:55;11.38;;;10.68;;
8544;SDS011;4310;51.054;6.994;2022-07-06T02:19:58;11.00;;;10.40;;
8544;SDS011;4310;51.054;6.994;2022-07-06T02:21:02;10.45;;;9.75;;
8544;SDS011;4310;51.054;6.994;2022-07-06T02:22:06;12.35;;;11.63;;
8544;SDS011;4310;51.054;6.994;2022-07-06T02:23:10;11.40;;;10.68;;
8544;SDS011;4310;51.054;6.994;2022-07-06T02:24:14;11.88;;;11.30;;
8544;SDS011;4310;51.054;6.994;2022-07-06T02:25:18;11.90;;;11.20;;
8544;SDS011;4310;51.054;6.994;2022-07-06T02:27:33;14.25;;;13.65;;
8544;SDS011;4310;51.054;6.994;2022-07-06T02:28:37;16.95;;;15.95;;
8544;SDS011;4310;51.054;6.994;2022-07-06T02:29:40;19.20;;;18.20;;
8544;SDS011;4310;51.054;6.994;2022-07-06T02:30:44;21.52;;;20.25;;
8544;SDS011;4310;51.054;6.994;2022-07-06T02:31:48;23.90;;;22.80;;
8544;SDS011;4310;51.054;6.994;2022-07-06T02:32:52;21.95;;;20.95;;
8544;SDS011;4310;51.054;6.994;2022-07-06T02:33:56;22.85;;;21.65;;
8544;SDS011;4310;51.054;6.994;2022-07-06T02:34:59;19.70;;;18.67;;
8544;SDS011;4310;51.054;6.994;2022-07-06T02:36:03;19.03;;;18.07;;
8544;SDS011;4310;51.054;6.994;2022-07-06T02:37:07;19.42;;;18.42;;
8544;SDS011;4310;51.054;6.994;2022-07-06T02:38:11;21.00;;;19.80;;
8544;SDS011;4310;51.054;6.994;2022-07-06T02:39:15;21.75;;;20.72;;
8544;SDS011;4310;51.054;6.994;2022-07-06T02:41:30;21.70;;;20.60;;
8544;SDS011;4310;51.054;6.994;2022-07-06T02:42:34;23.77;;;22.67;;
8544;SDS011;4310;51.054;6.994;2022-07-06T02:43:39;20.90;;;19.80;;
8544;SDS011;4310;51.054;6.994;2022-07-06T02:44:43;21.33;;;20.23;;
8544;SDS011;4310;51.054;6.994;2022-07-06T02:46:58;20.43;;;19.27;;
8544;SDS011;4310;51.054;6.994;2022-07-06T02:48:02;21.68;;;20.50;;
8544;SDS011;4310;51.054;6.994;2022-07-06T02:49:05;22.80;;;21.55;;
8544;SDS011;4310;51.054;6.994;2022-07-06T02:51:22;21.77;;;20.55;;
8544;SDS011;4310;51.054;6.994;2022-07-06T02:53:38;23.15;;;21.95;;
8544;SDS011;4310;51.054;6.994;2022-07-06T02:54:41;23.90;;;22.60;;
8544;SDS011;4310;51.054;6.994;2022-07-06T02:55:45;24.87;;;23.47;;
8544;SDS011;4310;51.054;6.994;2022-07-06T02:56:49;27.32;;;25.62;;
8544;SDS011;4310;51.054;6.994;2022-07-06T02:57:55;26.05;;;24.55;;
8544;SDS011;4310;51.054;6.994;2022-07-06T02:58:59;23.15;;;21.95;;
8544;SDS011;4310;51.054;6.994;2022-07-06T03:00:03;21.12;;;20.12;;
8544;SDS011;4310;51.054;6.994;2022-07-06T03:01:08;26.62;;;25.08;;
8544;SDS011;4310;51.054;6.994;2022-07-06T03:02:12;25.50;;;24.15;;
8544;SDS011;4310;51.054;6.994;2022-07-06T03:03:15;27.05;;;25.45;;
8544;SDS011;4310;51.054;6.994;2022-07-06T03:04:19;27.35;;;26.05;;
8544;SDS011;4310;51.054;6.994;2022-07-06T03:05:23;31.35;;;29.85;;
8544;SDS011;4310;51.054;6.994;2022-07-06T03:06:27;27.05;;;25.65;;
8544;SDS011;4310;51.054;6.994;2022-07-06T03:07:31;29.87;;;28.40;;
8544;SDS011;4310;51.054;6.994;2022-07-06T03:08:34;31.02;;;29.35;;
8544;SDS011;4310;51.054;6.994;2022-07-06T03:10:50;26.87;;;25.48;;
8544;SDS011;4310;51.054;6.994;2022-07-06T03:11:54;25.62;;;24.20;;
8544;SDS011;4310;51.054;6.994;2022-07-06T03:12:57;25.68;;;24.47;;
8544;SDS011;4310;51.054;6.994;2022-07-06T03:14:01;28.38;;;26.97;;
8544;SDS011;4310;51.054;6.994;2022-07-06T03:15:06;29.57;;;27.98;;
8544;SDS011;4310;51.054;6.994;2022-07-06T03:16:12;28.27;;;26.68;;
8544;SDS011;4310;51.054;6.994;2022-07-06T03:17:15;30.12;;;28.62;;
8544;SDS011;4310;51.054;6.994;2022-07-06T03:19:31;27.52;;;26.10;;
8544;SDS011;4310;51.054;6.994;2022-07-06T03:20:34;30.65;;;29.15;;
8544;SDS011;4310;51.054;6.994;2022-07-06T03:21:38;34.08;;;32.48;;
8544;SDS011;4310;51.054;6.994;2022-07-06T03:22:42;36.95;;;35.15;;
8544;SDS011;4310;51.054;6.994;2022-07-06T03:23:46;38.33;;;36.55;;
8544;SDS011;4310;51.054;6.994;2022-07-06T03:24:50;35.58;;;33.78;;
8544;SDS011;4310;51.054;6.994;2022-07-06T03:25:53;38.23;;;36.30;;
8544;SDS011;4310;51.054;6.994;2022-07-06T03:28:09;34.78;;;33.08;;
8544;SDS011;4310;51.054;6.994;2022-07-06T03:29:13;32.67;;;30.97;;
8544;SDS011;4310;51.054;6.994;2022-07-06T03:30:16;37.80;;;36.03;;
8544;SDS011;4310;51.054;6.994;2022-07-06T03:31:20;34.73;;;32.98;;
8544;SDS011;4310;51.054;6.994;2022-07-06T03:32:25;35.90;;;34.03;;
8544;SDS011;4310;51.054;6.994;2022-07-06T03:33:29;37.93;;;35.98;;
8544;SDS011;4310;51.054;6.994;2022-07-06T03:34:32;34.83;;;33.02;;
8544;SDS011;4310;51.054;6.994;2022-07-06T03:35:36;37.98;;;36.25;;
8544;SDS011;4310;51.054;6.994;2022-07-06T03:36:40;39.33;;;37.40;;
8544;SDS011;4310;51.054;6.994;2022-07-06T03:37:44;40.95;;;38.85;;
8544;SDS011;4310;51.054;6.994;2022-07-06T03:38:48;37.85;;;36.10;;
8544;SDS011;4310;51.054;6.994;2022-07-06T03:39:52;35.48;;;33.78;;
8544;SDS011;4310;51.054;6.994;2022-07-06T03:40:55;33.18;;;31.57;;
8544;SDS011;4310;51.054;6.994;2022-07-06T03:41:59;33.67;;;32.08;;
8544;SDS011;4310;51.054;6.994;2022-07-06T03:43:03;35.08;;;33.02;;
8544;SDS011;4310;51.054;6.994;2022-07-06T03:44:07;32.95;;;31.35;;
8544;SDS011;4310;51.054;6.994;2022-07-06T03:45:10;33.13;;;31.30;;
8544;SDS011;4310;51.054;6.994;2022-07-06T03:46:14;34.18;;;32.48;;
8544;SDS011;4310;51.054;6.994;2022-07-06T03:48:29;31.73;;;29.92;;
8544;SDS011;4310;51.054;6.994;2022-07-06T03:49:33;30.82;;;29.35;;
8544;SDS011;4310;51.054;6.994;2022-07-06T03:50:37;30.25;;;28.50;;
8544;SDS011;4310;51.054;6.994;2022-07-06T03:51:41;34.75;;;32.67;;
8544;SDS011;4310;51.054;6.994;2022-07-06T03:52:44;31.55;;;29.95;;
8544;SDS011;4310;51.054;6.994;2022-07-06T03:53:48;32.75;;;31.15;;
8544;SDS011;4310;51.054;6.994;2022-07-06T03:54:52;37.05;;;35.15;;
8544;SDS011;4310;51.054;6.994;2022-07-06T03:55:56;31.12;;;29.55;;
8544;SDS011;4310;51.054;6.994;2022-07-06T03:57:18;32.78;;;31.02;;
8544;SDS011;4310;51.054;6.994;2022-07-06T03:58:21;34.13;;;32.42;;
8544;SDS011;4310;51.054;6.994;2022-07-06T04:00:37;29.70;;;28.10;;
8544;SDS011;4310;51.054;6.994;2022-07-06T04:01:41;26.77;;;25.37;;
8544;SDS011;4310;51.054;6.994;2022-07-06T04:02:45;24.72;;;23.32;;
8544;SDS011;4310;51.054;6.994;2022-07-06T04:03:49;25.97;;;24.57;;
8544;SDS011;4310;51.054;6.994;2022-07-06T04:04:52;23.18;;;21.68;;
8544;SDS011;4310;51.054;6.994;2022-07-06T04:05:56;24.00;;;22.62;;
8544;SDS011;4310;51.054;6.994;2022-07-06T04:07:00;23.55;;;22.15;;
8544;SDS011;4310;51.054;6.994;2022-07-06T04:09:16;22.87;;;21.27;;
8544;SDS011;4310;51.054;6.994;2022-07-06T04:10:20;20.88;;;19.67;;
8544;SDS011;4310;51.054;6.994;2022-07-06T04:11:24;19.23;;;17.92;;
8544;SDS011;4310;51.054;6.994;2022-07-06T04:12:28;17.30;;;16.30;;
8544;SDS011;4310;51.054;6.994;2022-07-06T04:13:32;17.95;;;16.85;;
8544;SDS011;4310;51.054;6.994;2022-07-06T04:14:36;17.70;;;16.50;;
8544;SDS011;4310;51.054;6.994;2022-07-06T04:16:56;18.55;;;17.37;;
8544;SDS011;4310;51.054;6.994;2022-07-06T04:18:00;16.23;;;15.05;;
8544;SDS011;4310;51.054;6.994;2022-07-06T04:20:15;14.98;;;13.98;;
8544;SDS011;4310;51.054;6.994;2022-07-06T04:21:19;14.45;;;13.60;;
8544;SDS011;4310;51.054;6.994;2022-07-06T04:22:23;12.98;;;12.10;;
8544;SDS011;4310;51.054;6.994;2022-07-06T04:23:26;13.55;;;12.65;;
8544;SDS011;4310;51.054;6.994;2022-07-06T04:24:30;12.95;;;12.05;;
8544;SDS011;4310;51.054;6.994;2022-07-06T04:25:34;14.07;;;13.18;;
8544;SDS011;4310;51.054;6.994;2022-07-06T04:26:38;12.70;;;11.95;;
8544;SDS011;4310;51.054;6.994;2022-07-06T04:27:42;13.18;;;12.37;;
8544;SDS011;4310;51.054;6.994;2022-07-06T04:28:46;14.18;;;13.28;;
8544;SDS011;4310;51.054;6.994;2022-07-06T04:29:50;14.85;;;13.85;;
8544;SDS011;4310;51.054;6.994;2022-07-06T04:30:53;14.87;;;13.98;;
8544;SDS011;4310;51.054;6.994;2022-07-06T04:31:57;17.12;;;16.02;;
8544;SDS011;4310;51.054;6.994;2022-07-06T04:33:01;17.48;;;16.27;;
8544;SDS011;4310;51.054;6.994;2022-07-06T04:34:05;16.45;;;15.40;;
8544;SDS011;4310;51.054;6.994;2022-07-06T04:35:09;16.35;;;15.30;;
8544;SDS011;4310;51.054;6.994;2022-07-06T04:36:13;16.27;;;15.25;;
8544;SDS011;4310;51.054;6.994;2022-07-06T04:37:17;16.20;;;15.20;;
8544;SDS011;4310;51.054;6.994;2022-07-06T04:38:20;17.25;;;16.25;;
8544;SDS011;4310;51.054;6.994;2022-07-06T04:39:24;17.95;;;16.85;;
8544;SDS011;4310;51.054;6.994;2022-07-06T04:40:28;17.35;;;16.35;;
8544;SDS011;4310;51.054;6.994;2022-07-06T04:41:32;17.00;;;15.78;;
8544;SDS011;4310;51.054;6.994;2022-07-06T04:42:36;15.88;;;14.95;;
8544;SDS011;4310;51.054;6.994;2022-07-06T04:43:40;16.55;;;15.55;;
8544;SDS011;4310;51.054;6.994;2022-07-06T04:45:57;15.33;;;14.33;;
8544;SDS011;4310;51.054;6.994;2022-07-06T04:47:03;16.87;;;15.88;;
8544;SDS011;4310;51.054;6.994;2022-07-06T04:49:18;16.07;;;14.97;;
8544;SDS011;4310;51.054;6.994;2022-07-06T04:50:23;15.90;;;14.95;;
8544;SDS011;4310;51.054;6.994;2022-07-06T04:51:26;16.10;;;15.00;;
8544;SDS011;4310;51.054;6.994;2022-07-06T04:52:30;15.85;;;14.65;;
8544;SDS011;4310;51.054;6.994;2022-07-06T04:53:34;14.20;;;13.20;;
8544;SDS011;4310;51.054;6.994;2022-07-06T04:54:39;13.53;;;12.53;;
8544;SDS011;4310;51.054;6.994;2022-07-06T04:55:43;12.70;;;11.80;;
8544;SDS011;4310;51.054;6.994;2022-07-06T04:56:47;11.88;;;11.05;;
8544;SDS011;4310;51.054;6.994;2022-07-06T04:57:50;12.23;;;11.18;;
8544;SDS011;4310;51.054;6.994;2022-07-06T04:58:55;12.82;;;11.83;;
8544;SDS011;4310;51.054;6.994;2022-07-06T04:59:58;11.10;;;10.30;;
8544;SDS011;4310;51.054;6.994;2022-07-06T05:01:02;10.93;;;10.05;;
8544;SDS011;4310;51.054;6.994;2022-07-06T05:02:06;11.20;;;10.30;;
8544;SDS011;4310;51.054;6.994;2022-07-06T05:04:21;10.75;;;9.95;;
8544;SDS011;4310;51.054;6.994;2022-07-06T05:05:27;10.43;;;9.63;;
8544;SDS011;4310;51.054;6.994;2022-07-06T05:06:30;11.15;;;10.25;;
8544;SDS011;4310;51.054;6.994;2022-07-06T05:07:34;9.88;;;8.98;;
8544;SDS011;4310;51.054;6.994;2022-07-06T05:08:39;9.83;;;9.03;;
8544;SDS011;4310;51.054;6.994;2022-07-06T05:09:43;8.93;;;8.13;;
8544;SDS011;4310;51.054;6.994;2022-07-06T05:10:48;8.28;;;7.55;;
8544;SDS011;4310;51.054;6.994;2022-07-06T05:13:03;7.33;;;6.72;;
8544;SDS011;4310;51.054;6.994;2022-07-06T05:14:07;7.22;;;5.72;;
8544;SDS011;4310;51.054;6.994;2022-07-06T05:15:10;6.03;;;5.40;;
8544;SDS011;4310;51.054;6.994;2022-07-06T05:16:14;5.22;;;4.15;;
8544;SDS011;4310;51.054;6.994;2022-07-06T05:17:18;7.62;;;4.40;;
8544;SDS011;4310;51.054;6.994;2022-07-06T05:18:22;5.22;;;4.37;;
8544;SDS011;4310;51.054;6.994;2022-07-06T05:19:25;7.37;;;4.53;;
8544;SDS011;4310;51.054;6.994;2022-07-06T05:20:29;6.50;;;4.28;;
8544;SDS011;4310;51.054;6.994;2022-07-06T05:21:33;5.92;;;4.50;;
8544;SDS011;4310;51.054;6.994;2022-07-06T05:22:37;5.17;;;4.15;;
8544;SDS011;4310;51.054;6.994;2022-07-06T05:23:41;5.80;;;4.45;;
8544;SDS011;4310;51.054;6.994;2022-07-06T05:24:44;5.12;;;4.62;;
8544;SDS011;4310;51.054;6.994;2022-07-06T05:25:48;4.67;;;4.10;;
8544;SDS011;4310;51.054;6.994;2022-07-06T05:26:52;5.87;;;4.40;;
8544;SDS011;4310;51.054;6.994;2022-07-06T05:27:56;5.20;;;4.20;;
8544;SDS011;4310;51.054;6.994;2022-07-06T05:29:00;5.65;;;4.10;;
8544;SDS011;4310;51.054;6.994;2022-07-06T05:30:05;6.83;;;4.60;;
8544;SDS011;4310;51.054;6.994;2022-07-06T05:31:10;5.37;;;3.90;;
8544;SDS011;4310;51.054;6.994;2022-07-06T05:32:13;5.05;;;4.30;;
8544;SDS011;4310;51.054;6.994;2022-07-06T05:34:29;5.67;;;4.28;;
8544;SDS011;4310;51.054;6.994;2022-07-06T05:35:32;5.60;;;4.15;;
8544;SDS011;4310;51.054;6.994;2022-07-06T05:36:36;6.83;;;4.60;;
8544;SDS011;4310;51.054;6.994;2022-07-06T05:37:40;4.70;;;4.28;;
8544;SDS011;4310;51.054;6.994;2022-07-06T05:38:44;5.78;;;4.45;;
8544;SDS011;4310;51.054;6.994;2022-07-06T05:39:47;5.67;;;4.25;;
8544;SDS011;4310;51.054;6.994;2022-07-06T05:40:52;5.50;;;4.10;;
8544;SDS011;4310;51.054;6.994;2022-07-06T05:43:08;5.35;;;3.92;;
8544;SDS011;4310;51.054;6.994;2022-07-06T05:44:12;5.85;;;4.05;;
8544;SDS011;4310;51.054;6.994;2022-07-06T05:45:16;8.90;;;4.40;;
8544;SDS011;4310;51.054;6.994;2022-07-06T05:46:19;5.08;;;4.17;;
8544;SDS011;4310;51.054;6.994;2022-07-06T05:47:23;4.37;;;3.98;;
8544;SDS011;4310;51.054;6.994;2022-07-06T05:48:45;5.92;;;4.03;;
8544;SDS011;4310;51.054;6.994;2022-07-06T05:50:07;5.20;;;3.90;;
8544;SDS011;4310;51.054;6.994;2022-07-06T05:52:29;6.10;;;4.08;;
8544;SDS011;4310;51.054;6.994;2022-07-06T05:53:33;5.97;;;3.85;;
8544;SDS011;4310;51.054;6.994;2022-07-06T05:54:37;6.22;;;4.00;;
8544;SDS011;4310;51.054;6.994;2022-07-06T05:55:40;5.90;;;4.10;;
8544;SDS011;4310;51.054;6.994;2022-07-06T05:56:44;5.30;;;3.98;;
8544;SDS011;4310;51.054;6.994;2022-07-06T05:57:48;7.28;;;4.20;;
8544;SDS011;4310;51.054;6.994;2022-07-06T05:58:52;7.37;;;4.07;;
8544;SDS011;4310;51.054;6.994;2022-07-06T05:59:56;4.37;;;3.70;;
8544;SDS011;4310;51.054;6.994;2022-07-06T06:01:00;5.40;;;3.70;;
8544;SDS011;4310;51.054;6.994;2022-07-06T06:02:04;5.22;;;3.67;;
8544;SDS011;4310;51.054;6.994;2022-07-06T06:03:07;5.30;;;3.62;;
8544;SDS011;4310;51.054;6.994;2022-07-06T06:04:11;5.47;;;3.47;;
8544;SDS011;4310;51.054;6.994;2022-07-06T06:05:15;5.17;;;3.60;;
8544;SDS011;4310;51.054;6.994;2022-07-06T06:06:19;7.50;;;3.50;;
8544;SDS011;4310;51.054;6.994;2022-07-06T06:08:34;4.60;;;3.42;;
8544;SDS011;4310;51.054;6.994;2022-07-06T06:09:38;4.80;;;3.45;;
8544;SDS011;4310;51.054;6.994;2022-07-06T06:10:42;6.90;;;3.45;;
8544;SDS011;4310;51.054;6.994;2022-07-06T06:11:46;4.80;;;3.50;;
8544;SDS011;4310;51.054;6.994;2022-07-06T06:12:50;4.20;;;3.17;;
8544;SDS011;4310;51.054;6.994;2022-07-06T06:13:54;5.35;;;3.40;;
8544;SDS011;4310;51.054;6.994;2022-07-06T06:14:57;4.75;;;3.27;;
8544;SDS011;4310;51.054;6.994;2022-07-06T06:16:01;7.42;;;3.42;;
8544;SDS011;4310;51.054;6.994;2022-07-06T06:17:05;5.25;;;3.22;;
8544;SDS011;4310;51.054;6.994;2022-07-06T06:18:11;4.25;;;2.98;;
8544;SDS011;4310;51.054;6.994;2022-07-06T06:19:15;4.42;;;3.10;;
8544;SDS011;4310;51.054;6.994;2022-07-06T06:20:18;3.55;;;2.98;;
8544;SDS011;4310;51.054;6.994;2022-07-06T06:21:22;2.98;;;2.67;;
8544;SDS011;4310;51.054;6.994;2022-07-06T06:22:26;3.90;;;2.67;;
8544;SDS011;4310;51.054;6.994;2022-07-06T06:23:30;4.87;;;2.83;;
8544;SDS011;4310;51.054;6.994;2022-07-06T06:25:45;5.67;;;2.92;;
8544;SDS011;4310;51.054;6.994;2022-07-06T06:28:00;3.98;;;2.85;;
8544;SDS011;4310;51.054;6.994;2022-07-06T06:29:05;3.35;;;2.58;;
8544;SDS011;4310;51.054;6.994;2022-07-06T06:30:09;4.35;;;3.15;;
8544;SDS011;4310;51.054;6.994;2022-07-06T06:31:13;4.83;;;3.25;;
8544;SDS011;4310;51.054;6.994;2022-07-06T06:32:17;5.70;;;3.10;;
8544;SDS011;4310;51.054;6.994;2022-07-06T06:33:20;4.58;;;3.08;;
8544;SDS011;4310;51.054;6.994;2022-07-06T06:34:24;4.83;;;3.62;;
8544;SDS011;4310;51.054;6.994;2022-07-06T06:35:28;4.20;;;2.75;;
8544;SDS011;4310;51.054;6.994;2022-07-06T06:36:32;4.83;;;2.67;;
8544;SDS011;4310;51.054;6.994;2022-07-06T06:37:36;4.72;;;2.50;;
8544;SDS011;4310;51.054;6.994;2022-07-06T06:38:39;4.17;;;2.52;;
8544;SDS011;4310;51.054;6.994;2022-07-06T06:39:43;4.15;;;2.60;;
8544;SDS011;4310;51.054;6.994;2022-07-06T06:40:47;6.22;;;3.00;;
8544;SDS011;4310;51.054;6.994;2022-07-06T06:43:02;4.42;;;2.55;;
8544;SDS011;4310;51.054;6.994;2022-07-06T06:44:06;3.52;;;2.55;;
8544;SDS011;4310;51.054;6.994;2022-07-06T06:45:10;4.35;;;2.62;;
8544;SDS011;4310;51.054;6.994;2022-07-06T06:46:14;2.85;;;2.33;;
8544;SDS011;4310;51.054;6.994;2022-07-06T06:48:29;3.95;;;2.40;;
8544;SDS011;4310;51.054;6.994;2022-07-06T06:49:33;3.17;;;2.50;;
8544;SDS011;4310;51.054;6.994;2022-07-06T06:50:37;5.03;;;2.80;;
8544;SDS011;4310;51.054;6.994;2022-07-06T06:51:41;3.10;;;2.40;;
8544;SDS011;4310;51.054;6.994;2022-07-06T06:52:45;4.78;;;2.52;;
8544;SDS011;4310;51.054;6.994;2022-07-06T06:53:49;5.37;;;2.60;;
8544;SDS011;4310;51.054;6.994;2022-07-06T06:54:52;4.55;;;2.75;;
8544;SDS011;4310;51.054;6.994;2022-07-06T06:55:56;5.30;;;2.75;;
8544;SDS011;4310;51.054;6.994;2022-07-06T06:57:00;4.33;;;2.55;;
8544;SDS011;4310;51.054;6.994;2022-07-06T06:58:04;3.92;;;2.40;;
8544;SDS011;4310;51.054;6.994;2022-07-06T06:59:08;4.80;;;2.50;;
8544;SDS011;4310;51.054;6.994;2022-07-06T07:00:12;5.97;;;2.60;;
8544;SDS011;4310;51.054;6.994;2022-07-06T07:01:16;5.25;;;2.40;;
8544;SDS011;4310;51.054;6.994;2022-07-06T07:02:20;4.33;;;2.20;;
8544;SDS011;4310;51.054;6.994;2022-07-06T07:03:24;6.40;;;2.30;;
8544;SDS011;4310;51.054;6.994;2022-07-06T07:06:50;4.47;;;2.20;;
8544;SDS011;4310;51.054;6.994;2022-07-06T07:07:54;4.50;;;2.30;;
8544;SDS011;4310;51.054;6.994;2022-07-06T07:09:00;4.87;;;2.17;;
8544;SDS011;4310;51.054;6.994;2022-07-06T07:10:04;5.25;;;2.58;;
8544;SDS011;4310;51.054;6.994;2022-07-06T07:11:09;5.22;;;2.52;;
8544;SDS011;4310;51.054;6.994;2022-07-06T07:12:12;3.90;;;2.17;;
8544;SDS011;4310;51.054;6.994;2022-07-06T07:13:17;3.70;;;1.90;;
8544;SDS011;4310;51.054;6.994;2022-07-06T07:15:32;3.47;;;2.27;;
8544;SDS011;4310;51.054;6.994;2022-07-06T07:16:36;3.42;;;2.12;;
8544;SDS011;4310;51.054;6.994;2022-07-06T07:17:40;2.67;;;1.90;;
8544;SDS011;4310;51.054;6.994;2022-07-06T07:18:44;5.12;;;2.40;;
8544;SDS011;4310;51.054;6.994;2022-07-06T07:19:48;2.60;;;2.12;;